ミラノ/マルペンサ の空港の天気 - METARとTAF

ミラノ・マルペンサ国際空港 ( LIMC / MXP ) - イタリア ミラノ
飛行場実況気象(Metar)
観測時間05/31 05:20 CEST (05/31 03:20 UTC)
風向・風速東北東 3m/s
視程10km以上
天気現象
少しの雲 雲底高度 2130m
気温14℃
湿度94%
気圧1017hPa
METARLIMC 310320Z 06005KT 040V100 9999 FEW070 14/13 Q1017 NOSIG
過去の天気等 Google飛行場航空写真 Wunderground天気予報

過去48時間のMETAR

飛行場予報(TAF)
発表時間: 5/31 01:00 CEST (5/30 23:00 UTC)
予報対象時間: 31日2時 CEST ~ 1日8時 CEST
風向・風速東 5m/s
視程10km以上
全天の4割程度の雲 雲底高度 1220m
31日2時 CEST ~ 31日6時 CEST に一時的に
天気現象
31日9時 CEST ~ 31日11時 CEST に徐々に
風向・風速不定 3m/s
TAF LIMC 302300Z 3100/0106 10010KT 9999 SCT040
TEMPO 3100/3104 RA
BECMG 3107/3109 VRB05KT